X  Schlie├čen METAR Luftfahrt Wetterdaten     EHRD Rotterdam The Hague Airport
Temperatur
18°C Temperatur
11°C Taupunkt
64% Feuchtigkeit



Wind
10 KM/S
6 MPS
3 M/S
5 KTS



250°
WSW
Aktuelle Wetterlage

Meistens vereinzelte Wolken Meistens vereinzelte Wolken
Luftdruck 1023.92 (hPa) - 30.24 (inHg)
Sichtweite 6.2 (Meile) - 10 (Km)
Flughafen
Flughafen Code EHRD

Position : Rotterdam The Hague Airport
Entfernung: 16 (Km)

Metar:
EHRD 301555Z AUTO 25005KT 9999 SCT034 18/11 Q1024 NOSIG

Zeit: 30-09-2023 15:55 CEST